Time;durP1;ratioP1;P1;durP2;ratioP2;P2;SDS_P1;SDS_P2;PMS_P1;PMS_P2;Temp;Humidity;BMP_temperature;BMP_pressure;BME280_temperature;BME280_humidity;BME280_pressure;Samples;Min_cycle;Max_cycle;Signal;HPM_P1;HPM_P2
2021/09/14 00:00:47;;;;;;;12.03;10.23;;;16.10;99.90;;;;;;5091597;28;20438;-64
2021/09/14 00:03:14;;;;;;;11.00;9.90;;;16.00;99.90;;;;;;5091221;28;20960;-65
2021/09/14 00:05:41;;;;;;;11.20;10.17;;;16.00;99.90;;;;;;5090511;28;20473;-65
2021/09/14 00:08:07;;;;;;;12.43;11.23;;;16.00;99.90;;;;;;5091337;28;20499;-65
2021/09/14 00:10:34;;;;;;;12.33;11.03;;;15.90;99.90;;;;;;5091699;28;20819;-64
2021/09/14 00:13:03;;;;;;;12.20;10.83;;;15.90;99.90;;;;;;5090886;28;20533;-64
2021/09/14 00:15:30;;;;;;;11.17;10.13;;;15.90;99.90;;;;;;5091299;28;20910;-63
2021/09/14 00:17:56;;;;;;;11.70;10.50;;;15.90;99.90;;;;;;5093872;28;20461;-64
2021/09/14 00:20:23;;;;;;;10.67;9.73;;;15.80;99.90;;;;;;5091208;28;20442;-64
2021/09/14 00:22:50;;;;;;;11.00;9.90;;;15.70;99.90;;;;;;5090953;28;20439;-64
2021/09/14 00:25:17;;;;;;;11.87;10.37;;;15.70;99.90;;;;;;5091083;28;20995;-63
2021/09/14 00:27:44;;;;;;;10.70;9.60;;;15.70;99.90;;;;;;5091196;28;20438;-64
2021/09/14 00:30:14;;;;;;;11.37;10.27;;;15.70;99.90;;;;;;5090946;28;20442;-64
2021/09/14 00:32:40;;;;;;;11.90;10.60;;;15.70;99.90;;;;;;5090772;28;20548;-64
2021/09/14 00:35:08;;;;;;;11.23;10.13;;;15.60;99.90;;;;;;5091142;28;20816;-63
2021/09/14 00:37:35;;;;;;;11.00;9.90;;;15.60;99.90;;;;;;5091269;28;20920;-64
2021/09/14 00:40:02;;;;;;;11.63;10.43;;;15.60;99.90;;;;;;5091278;28;20482;-64
2021/09/14 00:42:29;;;;;;;12.27;10.67;;;15.60;99.90;;;;;;5090749;28;20438;-64
2021/09/14 00:44:56;;;;;;;12.60;11.20;;;15.60;99.90;;;;;;5090901;28;20545;-64
2021/09/14 00:47:24;;;;;;;11.87;10.67;;;15.60;99.90;;;;;;5090921;28;20473;-64
2021/09/14 00:49:51;;;;;;;10.73;9.67;;;15.60;99.90;;;;;;5091507;28;20442;-64
2021/09/14 00:52:18;;;;;;;14.70;10.87;;;15.60;99.90;;;;;;5091011;28;20801;-63
2021/09/14 00:54:46;;;;;;;12.03;10.80;;;15.50;99.90;;;;;;5090894;28;20463;-64
2021/09/14 00:57:12;;;;;;;11.33;10.10;;;15.50;99.90;;;;;;5090559;28;20783;-64
2021/09/14 00:59:39;;;;;;;12.03;10.77;;;15.50;99.90;;;;;;5090520;28;20478;-64
2021/09/14 01:02:06;;;;;;;11.30;10.20;;;15.40;99.90;;;;;;5090055;28;21006;-64
2021/09/14 01:04:35;;;;;;;11.87;10.67;;;15.50;99.90;;;;;;5090588;28;20468;-63
2021/09/14 01:07:02;;;;;;;11.53;10.40;;;15.50;99.90;;;;;;5090558;28;20544;-64
2021/09/14 01:09:31;;;;;;;11.43;10.23;;;15.50;99.90;;;;;;5090693;28;20426;-63
2021/09/14 01:11:59;;;;;;;11.90;10.80;;;15.40;99.90;;;;;;5090153;28;20487;-64
2021/09/14 01:14:26;;;;;;;12.67;11.37;;;15.40;99.90;;;;;;5090201;28;20470;-63
2021/09/14 01:16:53;;;;;;;11.90;10.77;;;15.40;99.90;;;;;;5090390;28;20441;-63
2021/09/14 01:19:20;;;;;;;11.57;10.47;;;15.40;99.90;;;;;;5090299;28;20481;-64
2021/09/14 01:21:48;;;;;;;11.97;10.77;;;15.40;99.90;;;;;;5090294;28;20532;-64
2021/09/14 01:24:16;;;;;;;12.10;10.83;;;15.30;99.90;;;;;;5090203;28;20533;-64
2021/09/14 01:26:43;;;;;;;11.93;10.70;;;15.30;99.90;;;;;;5090362;28;20442;-63
2021/09/14 01:29:11;;;;;;;12.10;10.90;;;15.20;99.90;;;;;;5090218;28;20440;-64
2021/09/14 01:31:39;;;;;;;11.47;10.33;;;15.20;99.90;;;;;;5090396;28;20444;-63
2021/09/14 01:34:06;;;;;;;14.40;13.00;;;15.30;99.90;;;;;;5090685;28;20484;-64
2021/09/14 01:36:33;;;;;;;13.57;12.20;;;15.20;99.90;;;;;;5090450;28;20520;-64
2021/09/14 01:39:00;;;;;;;12.17;11.07;;;15.20;99.90;;;;;;5090147;28;21198;-64
2021/09/14 01:41:28;;;;;;;14.00;11.73;;;15.20;99.90;;;;;;5089980;28;20446;-65
2021/09/14 01:43:56;;;;;;;12.97;11.70;;;15.20;99.90;;;;;;5093617;28;20438;-64
2021/09/14 01:46:23;;;;;;;14.40;13.00;;;15.20;99.90;;;;;;5094277;28;21006;-64
2021/09/14 01:48:50;;;;;;;13.10;11.80;;;15.20;99.90;;;;;;5094482;28;20471;-64
2021/09/14 01:51:17;;;;;;;13.23;11.97;;;15.20;99.90;;;;;;5093950;28;20433;-65
2021/09/14 01:53:43;;;;;;;12.93;11.63;;;15.10;99.90;;;;;;5093911;28;20961;-64
2021/09/14 01:56:10;;;;;;;13.40;12.00;;;15.10;99.90;;;;;;5093806;28;20541;-65
2021/09/14 01:58:38;;;;;;;13.70;11.60;;;15.10;99.90;;;;;;5094016;28;20469;-64
2021/09/14 02:01:10;;;;;;;12.10;10.93;;;15.10;99.90;;;;;;5094306;28;20461;-65
2021/09/14 02:03:46;;;;;;;12.93;11.73;;;15.10;99.90;;;;;;5093700;28;20445;-64
2021/09/14 02:23:36;;;;;;;14.23;11.80;;;15.10;99.90;;;;;;5094072;28;20429;-64
2021/09/14 02:42:36;;;;;;;12.80;11.50;;;14.70;99.90;;;;;;5148782;27;20508;-63
2021/09/14 02:58:44;;;;;;;13.67;12.30;;;14.50;99.90;;;;;;5148827;27;20841;-63
2021/09/14 03:01:13;;;;;;;15.00;13.50;;;14.50;99.90;;;;;;5148777;27;20472;-63
2021/09/14 03:03:43;;;;;;;14.20;12.87;;;14.50;99.90;;;;;;5148242;27;20435;-63
2021/09/14 03:06:10;;;;;;;13.50;12.13;;;14.50;99.90;;;;;;5148670;27;20492;-63
2021/09/14 03:08:37;;;;;;;14.33;12.90;;;14.50;99.90;;;;;;5148484;27;21102;-63
2021/09/14 03:11:06;;;;;;;14.37;12.97;;;14.50;99.90;;;;;;5148514;27;20443;-63
2021/09/14 03:13:33;;;;;;;14.40;13.10;;;14.50;99.90;;;;;;5148105;27;20797;-63
2021/09/14 03:16:02;;;;;;;14.20;12.83;;;14.50;99.90;;;;;;5148528;27;20977;-64
2021/09/14 03:18:28;;;;;;;14.30;12.90;;;14.50;99.90;;;;;;5148639;27;20463;-63
2021/09/14 03:20:55;;;;;;;13.70;12.47;;;14.50;99.90;;;;;;5148463;27;20822;-64
2021/09/14 03:23:22;;;;;;;14.57;12.70;;;14.50;99.90;;;;;;5147980;27;20445;-64
2021/09/14 03:25:49;;;;;;;13.40;12.10;;;14.50;99.90;;;;;;5148340;27;20460;-63
2021/09/14 03:28:16;;;;;;;13.80;12.33;;;14.50;99.90;;;;;;5148644;27;20801;-63
2021/09/14 03:30:44;;;;;;;13.57;12.27;;;14.60;99.90;;;;;;5148435;27;20432;-63
2021/09/14 03:33:12;;;;;;;14.63;13.33;;;14.60;99.90;;;;;;5148141;27;20431;-63
2021/09/14 03:35:39;;;;;;;15.60;14.00;;;14.60;99.90;;;;;;5148142;27;20558;-63
2021/09/14 03:38:06;;;;;;;15.50;12.57;;;14.70;99.90;;;;;;5147907;27;20450;-63
2021/09/14 03:40:33;;;;;;;13.80;12.33;;;14.70;99.90;;;;;;5148000;27;20479;-63
2021/09/14 03:43:00;;;;;;;13.60;12.30;;;14.70;99.90;;;;;;5147533;27;20472;-64
2021/09/14 03:45:27;;;;;;;15.20;13.60;;;14.70;99.90;;;;;;5147939;27;20457;-64
2021/09/14 03:47:54;;;;;;;14.97;13.47;;;14.80;99.90;;;;;;5148229;27;20804;-65
2021/09/14 03:50:22;;;;;;;13.47;12.17;;;14.70;99.90;;;;;;5148225;27;21118;-66
2021/09/14 03:52:49;;;;;;;13.70;12.27;;;14.70;99.90;;;;;;5139197;27;20463;-65
2021/09/14 03:55:16;;;;;;;14.30;12.93;;;14.70;99.90;;;;;;5134393;27;20840;-66
2021/09/14 03:57:43;;;;;;;13.40;12.10;;;14.60;99.90;;;;;;5134126;27;20447;-63
2021/09/14 04:00:11;;;;;;;14.30;12.60;;;14.70;99.90;;;;;;5134014;27;20440;-63
2021/09/14 04:02:41;;;;;;;14.23;12.73;;;14.70;99.90;;;;;;5133591;27;20487;-64
2021/09/14 04:05:23;;;;;;;15.80;14.30;;;14.70;99.90;;;;;;5134025;27;21111;-64
2021/09/14 04:07:53;;;;;;;15.10;13.77;;;14.60;99.90;;;;;;5134243;27;20457;-63
2021/09/14 04:10:21;;;;;;;14.80;13.50;;;14.50;99.90;;;;;;5134066;27;20445;-63
2021/09/14 04:12:48;;;;;;;15.97;14.47;;;14.50;99.90;;;;;;5133836;27;20431;-64
2021/09/14 04:15:14;;;;;;;15.53;13.90;;;14.50;99.90;;;;;;5133837;27;20826;-63
2021/09/14 04:17:41;;;;;;;15.67;14.07;;;14.40;99.90;;;;;;5133868;27;20539;-64
2021/09/14 04:20:09;;;;;;;16.17;13.83;;;14.40;99.90;;;;;;5133713;27;20439;-64
2021/09/14 04:22:36;;;;;;;14.17;12.67;;;14.30;99.90;;;;;;5133219;27;21008;-63
2021/09/14 04:25:05;;;;;;;15.50;13.70;;;14.30;99.90;;;;;;5133514;27;20463;-63
2021/09/14 04:27:32;;;;;;;15.90;14.40;;;14.30;99.90;;;;;;5133616;27;20444;-64
2021/09/14 04:29:59;;;;;;;15.70;14.10;;;14.30;99.90;;;;;;5133230;27;20440;-64
2021/09/14 04:32:26;;;;;;;14.33;12.90;;;14.40;99.90;;;;;;5133144;27;20436;-63
2021/09/14 04:34:53;;;;;;;14.20;12.90;;;14.40;99.90;;;;;;5133313;27;20491;-64
2021/09/14 04:37:20;;;;;;;13.80;12.40;;;14.30;99.90;;;;;;5133357;27;20432;-64
2021/09/14 04:39:47;;;;;;;12.77;11.47;;;14.30;99.90;;;;;;5133458;27;20436;-63
2021/09/14 04:42:15;;;;;;;13.13;11.87;;;14.30;99.90;;;;;;5132212;27;20472;-64
2021/09/14 04:44:42;;;;;;;12.53;11.23;;;14.40;99.90;;;;;;5132906;27;20452;-63
2021/09/14 04:47:09;;;;;;;13.50;12.27;;;14.30;99.90;;;;;;5133784;27;20439;-63
2021/09/14 04:49:36;;;;;;;13.13;11.80;;;14.30;99.90;;;;;;5150798;27;20525;-64
2021/09/14 04:52:06;;;;;;;13.43;12.00;;;14.30;99.90;;;;;;5116492;27;20437;-64
2021/09/14 04:54:33;;;;;;;14.13;12.80;;;14.20;99.90;;;;;;5131797;27;20458;-64
2021/09/14 04:57:00;;;;;;;16.33;14.73;;;14.20;99.90;;;;;;5131485;27;20439;-64
2021/09/14 04:59:28;;;;;;;13.70;12.30;;;14.20;99.90;;;;;;5129209;27;20944;-67
2021/09/14 05:01:56;;;;;;;14.67;13.20;;;14.20;99.90;;;;;;5129779;27;20468;-65
2021/09/14 05:04:23;;;;;;;13.40;11.90;;;14.10;99.90;;;;;;5117381;27;20468;-66
2021/09/14 05:06:50;;;;;;;14.83;13.17;;;14.20;99.90;;;;;;5125707;27;20532;-67
2021/09/14 05:09:17;;;;;;;14.43;12.97;;;14.10;99.90;;;;;;5121975;27;20527;-66
2021/09/14 05:11:44;;;;;;;14.50;13.00;;;14.10;99.90;;;;;;5121662;27;20443;-66
2021/09/14 05:14:11;;;;;;;13.97;12.57;;;14.20;99.90;;;;;;5127530;27;20503;-68
2021/09/14 05:16:39;;;;;;;15.57;13.77;;;14.20;99.90;;;;;;5149320;27;20427;-66
2021/09/14 05:19:08;;;;;;;14.07;12.67;;;14.20;99.90;;;;;;5118442;27;20511;-67
2021/09/14 05:21:43;;;;;;;12.93;11.63;;;14.20;99.90;;;;;;5116856;27;20479;-67
2021/09/14 05:24:10;;;;;;;13.97;12.67;;;14.20;99.90;;;;;;5110761;28;20447;-65
2021/09/14 05:26:37;;;;;;;13.17;11.83;;;14.20;99.90;;;;;;5111587;28;20468;-68
2021/09/14 05:29:04;;;;;;;14.93;13.53;;;14.20;99.90;;;;;;5112085;27;20549;-66
2021/09/14 05:31:31;;;;;;;15.17;12.70;;;14.30;99.90;;;;;;5111673;28;20445;-68
2021/09/14 05:33:59;;;;;;;14.57;13.17;;;14.30;99.90;;;;;;5111644;28;20450;-67
2021/09/14 05:36:26;;;;;;;15.30;12.67;;;14.30;99.90;;;;;;5111744;28;21021;-67
2021/09/14 05:38:53;;;;;;;14.10;12.30;;;14.40;99.90;;;;;;5111509;28;20528;-66
2021/09/14 05:41:20;;;;;;;13.93;12.47;;;14.40;99.90;;;;;;5111035;28;20488;-67
2021/09/14 05:43:47;;;;;;;14.90;13.40;;;14.50;99.90;;;;;;5111086;28;20536;-66
2021/09/14 05:46:14;;;;;;;13.73;12.40;;;14.60;99.90;;;;;;5111453;28;20508;-68
2021/09/14 05:48:41;;;;;;;14.30;12.83;;;14.60;99.90;;;;;;5111198;28;20445;-68
2021/09/14 05:51:09;;;;;;;15.70;13.20;;;14.60;99.90;;;;;;5110929;28;20532;-67
2021/09/14 05:53:36;;;;;;;15.30;13.83;;;14.60;99.90;;;;;;5110655;28;20449;-67
2021/09/14 05:56:03;;;;;;;15.97;14.40;;;14.70;99.90;;;;;;5111080;28;20980;-67
2021/09/14 05:58:31;;;;;;;14.77;13.37;;;14.70;99.90;;;;;;5110983;28;20445;-67
2021/09/14 06:00:58;;;;;;;15.13;13.67;;;14.80;99.90;;;;;;5110660;28;20429;-68
2021/09/14 06:03:24;;;;;;;15.83;14.37;;;14.90;99.90;;;;;;5110421;28;20437;-67
2021/09/14 06:05:51;;;;;;;15.97;14.40;;;14.90;99.90;;;;;;5110579;28;20457;-67
2021/09/14 06:08:19;;;;;;;15.57;13.87;;;14.90;99.90;;;;;;5110904;28;20464;-67
2021/09/14 06:10:47;;;;;;;15.43;13.80;;;15.00;99.90;;;;;;5110845;28;20463;-66
2021/09/14 06:13:14;;;;;;;17.37;14.03;;;15.10;99.90;;;;;;5110390;28;20804;-67
2021/09/14 06:15:41;;;;;;;14.90;13.50;;;15.20;99.90;;;;;;5110350;28;20459;-68
2021/09/14 06:18:08;;;;;;;17.13;14.07;;;15.20;99.90;;;;;;5110492;28;20528;-67
2021/09/14 06:20:35;;;;;;;14.87;13.37;;;15.30;99.90;;;;;;5110383;28;20433;-67
2021/09/14 06:23:02;;;;;;;17.27;15.60;;;15.40;99.90;;;;;;5110289;28;20483;-66
2021/09/14 06:25:31;;;;;;;14.83;13.33;;;15.50;99.90;;;;;;5110481;28;20479;-68
2021/09/14 06:27:57;;;;;;;15.33;13.83;;;15.60;99.90;;;;;;5110326;28;20957;-66
2021/09/14 06:30:24;;;;;;;15.90;14.30;;;15.70;99.90;;;;;;5110503;28;20441;-66
2021/09/14 06:32:51;;;;;;;15.07;12.80;;;15.80;99.90;;;;;;5110091;28;20531;-66
2021/09/14 06:35:18;;;;;;;15.83;13.50;;;15.90;99.90;;;;;;5110065;28;20544;-65
2021/09/14 06:37:45;;;;;;;15.37;13.57;;;16.00;99.90;;;;;;5110447;28;20451;-66
2021/09/14 06:40:12;;;;;;;14.50;13.00;;;16.00;99.90;;;;;;5110169;28;20488;-66
2021/09/14 06:42:40;;;;;;;13.47;12.10;;;16.10;99.90;;;;;;5109921;28;20491;-65
2021/09/14 06:45:10;;;;;;;16.00;14.30;;;16.20;99.90;;;;;;5110053;28;21034;-66
2021/09/14 06:47:36;;;;;;;15.30;12.93;;;16.30;99.90;;;;;;5109949;28;21188;-66
2021/09/14 06:50:04;;;;;;;15.07;13.57;;;16.50;99.90;;;;;;5110372;28;20441;-66
2021/09/14 06:52:30;;;;;;;14.23;12.80;;;16.60;99.90;;;;;;5109998;28;20438;-66
2021/09/14 06:54:57;;;;;;;14.50;13.10;;;16.70;99.90;;;;;;5110227;28;20471;-66
2021/09/14 06:57:24;;;;;;;14.13;12.73;;;16.80;99.90;;;;;;5110259;28;20801;-66
2021/09/14 06:59:53;;;;;;;14.90;13.40;;;17.00;99.90;;;;;;5110282;28;20441;-66
2021/09/14 07:02:19;;;;;;;14.87;12.53;;;17.20;99.90;;;;;;5109688;28;20569;-66
2021/09/14 07:04:47;;;;;;;14.67;13.37;;;17.30;99.90;;;;;;5110300;28;20772;-66
2021/09/14 07:07:14;;;;;;;12.90;11.50;;;17.50;99.90;;;;;;5110316;28;20532;-66
2021/09/14 07:09:41;;;;;;;12.90;11.43;;;17.70;99.90;;;;;;5110226;28;21074;-66
2021/09/14 07:12:08;;;;;;;13.30;11.90;;;17.80;99.90;;;;;;5109670;28;20437;-66
2021/09/14 07:14:37;;;;;;;14.13;12.27;;;18.00;99.90;;;;;;5110098;28;20538;-66
2021/09/14 07:17:05;;;;;;;12.73;11.53;;;18.10;99.90;;;;;;5110284;27;20502;-66
2021/09/14 07:19:32;;;;;;;11.70;10.50;;;18.20;99.90;;;;;;5110437;28;20441;-66
2021/09/14 07:21:59;;;;;;;10.57;9.57;;;18.20;99.90;;;;;;5109848;28;20473;-66
2021/09/14 07:24:26;;;;;;;10.90;9.90;;;18.40;99.90;;;;;;5110368;28;20461;-66
2021/09/14 07:26:53;;;;;;;10.50;9.60;;;18.40;99.90;;;;;;5110249;28;20452;-66
2021/09/14 07:29:20;;;;;;;11.50;10.43;;;18.50;99.90;;;;;;5113954;28;20437;-66
2021/09/14 07:31:48;;;;;;;12.07;10.87;;;18.60;99.90;;;;;;5113602;28;20443;-66
2021/09/14 07:34:17;;;;;;;11.17;10.13;;;18.70;99.90;;;;;;5113842;28;20437;-66
2021/09/14 07:36:43;;;;;;;10.67;9.57;;;18.80;99.90;;;;;;5113757;28;20527;-66
2021/09/14 07:39:10;;;;;;;11.47;10.47;;;18.90;99.90;;;;;;5113665;27;20476;-66
2021/09/14 07:41:38;;;;;;;11.83;10.57;;;19.10;99.90;;;;;;5113009;28;20440;-66
2021/09/14 07:44:05;;;;;;;10.13;8.80;;;19.20;99.90;;;;;;5113293;28;20502;-66
2021/09/14 07:46:32;;;;;;;10.33;9.43;;;19.40;99.90;;;;;;5113565;28;20548;-66
2021/09/14 07:48:58;;;;;;;11.40;9.83;;;19.50;99.90;;;;;;5113454;27;20437;-67
2021/09/14 07:51:27;;;;;;;10.53;8.97;;;19.60;99.90;;;;;;5112912;28;20939;-66
2021/09/14 07:53:54;;;;;;;9.80;8.53;;;19.70;99.90;;;;;;5113313;28;20441;-66
2021/09/14 07:56:21;;;;;;;10.63;9.37;;;19.90;99.90;;;;;;5113169;28;20843;-66
2021/09/14 07:58:47;;;;;;;10.87;9.30;;;20.00;99.90;;;;;;5113493;28;20532;-66
2021/09/14 08:01:14;;;;;;;9.30;8.40;;;20.10;99.90;;;;;;5113135;28;20463;-67
2021/09/14 08:03:41;;;;;;;9.60;7.97;;;20.30;99.90;;;;;;5113109;28;20893;-67
2021/09/14 08:06:08;;;;;;;10.13;9.10;;;20.40;99.90;;;;;;5113037;28;20456;-67
2021/09/14 08:08:36;;;;;;;12.10;9.53;;;20.50;99.90;;;;;;5113018;28;20442;-67
2021/09/14 08:11:03;;;;;;;10.33;9.03;;;20.60;99.90;;;;;;5112768;28;20516;-67
2021/09/14 08:13:30;;;;;;;9.27;8.47;;;20.70;99.90;;;;;;5112700;28;20794;-67
2021/09/14 08:15:57;;;;;;;9.47;7.97;;;20.90;99.90;;;;;;5112931;28;20554;-67
2021/09/14 08:18:23;;;;;;;9.70;7.97;;;21.00;99.90;;;;;;5112696;27;20960;-67
2021/09/14 08:20:50;;;;;;;8.33;7.37;;;21.10;99.90;;;;;;5112675;28;20441;-66
2021/09/14 08:23:17;;;;;;;8.10;7.30;;;21.20;99.90;;;;;;5112485;28;20650;-66
2021/09/14 08:25:45;;;;;;;10.87;7.97;;;21.40;99.90;;;;;;5112780;28;20564;-67
2021/09/14 08:28:12;;;;;;;7.67;6.97;;;21.40;99.90;;;;;;5112746;28;20524;-67
2021/09/14 08:30:39;;;;;;;7.50;6.67;;;21.50;99.90;;;;;;5112786;28;20437;-67
2021/09/14 08:33:06;;;;;;;9.37;7.13;;;21.60;99.90;;;;;;5112318;28;20432;-67
2021/09/14 08:35:33;;;;;;;9.77;6.73;;;21.80;99.90;;;;;;5112344;27;20461;-67
2021/09/14 08:38:02;;;;;;;9.33;7.00;;;22.00;99.90;;;;;;5112247;28;20607;-67
2021/09/14 08:40:29;;;;;;;8.50;6.70;;;22.10;99.90;;;;;;5112476;27;20460;-67
2021/09/14 08:42:59;;;;;;;8.37;6.03;;;22.30;99.90;;;;;;5112004;28;20472;-67
2021/09/14 08:45:27;;;;;;;6.80;6.20;;;22.40;99.90;;;;;;5112586;27;20662;-67
2021/09/14 08:47:54;;;;;;;7.17;6.47;;;22.60;99.90;;;;;;5112484;28;20468;-67
2021/09/14 08:50:23;;;;;;;6.80;6.03;;;22.80;99.90;;;;;;5112259;28;20536;-67
2021/09/14 08:52:50;;;;;;;8.43;6.07;;;22.90;99.90;;;;;;5112004;28;20544;-66
2021/09/14 08:55:18;;;;;;;7.87;6.43;;;23.10;99.90;;;;;;5112060;28;20468;-67
2021/09/14 08:57:50;;;;;;;6.80;6.20;;;23.20;99.90;;;;;;5112049;28;20943;-67
2021/09/14 09:00:30;;;;;;;6.73;6.10;;;23.30;99.90;;;;;;5112186;28;20469;-67
2021/09/14 09:02:57;;;;;;;7.00;6.30;;;23.50;99.90;;;;;;5111838;28;20488;-67
2021/09/14 09:05:30;;;;;;;8.83;6.87;;;23.70;99.90;;;;;;5112045;28;20462;-67
2021/09/14 09:07:58;;;;;;;7.07;6.37;;;23.90;99.90;;;;;;5112432;27;20540;-67
2021/09/14 09:10:25;;;;;;;7.10;6.40;;;24.10;99.90;;;;;;5112269;28;20528;-67
2021/09/14 09:12:52;;;;;;;7.83;6.03;;;24.30;99.90;;;;;;5112263;28;20476;-68
2021/09/14 09:15:25;;;;;;;8.00;6.30;;;24.70;99.90;;;;;;5112064;28;20461;-67
2021/09/14 09:18:08;;;;;;;9.33;6.27;;;24.90;99.90;;;;;;5112107;28;20471;-67
2021/09/14 09:20:36;;;;;;;9.63;6.60;;;25.10;99.90;;;;;;5111734;28;20433;-67
2021/09/14 09:23:06;;;;;;;8.27;6.70;;;25.60;99.90;;;;;;5111526;28;20473;-67
2021/09/14 09:25:33;;;;;;;8.17;6.80;;;25.80;99.90;;;;;;5111458;28;20453;-66
2021/09/14 09:28:05;;;;;;;7.07;6.37;;;26.10;99.90;;;;;;5111630;28;20473;-67
2021/09/14 09:30:36;;;;;;;6.80;6.20;;;26.40;99.90;;;;;;5111609;28;20528;-67
2021/09/14 09:33:04;;;;;;;7.50;5.97;;;26.50;99.90;;;;;;5111318;28;20437;-67
2021/09/14 09:35:32;;;;;;;6.30;5.50;;;26.80;99.90;;;;;;5111277;28;21181;-67
2021/09/14 09:38:00;;;;;;;6.53;5.70;;;27.20;99.90;;;;;;5111647;28;20444;-67
2021/09/14 09:40:30;;;;;;;8.97;5.90;;;27.20;99.90;;;;;;5111417;28;20532;-67
2021/09/14 09:42:58;;;;;;;8.00;6.20;;;27.60;99.90;;;;;;5111108;28;20583;-67
2021/09/14 09:45:25;;;;;;;8.17;6.20;;;27.80;99.90;;;;;;5111080;28;21001;-67
2021/09/14 09:47:53;;;;;;;6.33;5.83;;;28.20;99.90;;;;;;5111509;28;20467;-67
2021/09/14 09:50:20;;;;;;;7.80;5.87;;;27.80;99.90;;;;;;5110393;28;20948;-67
2021/09/14 09:52:48;;;;;;;6.30;5.80;;;27.60;99.90;;;;;;5110855;28;20812;-67
2021/09/14 09:55:14;;;;;;;7.03;6.40;;;27.80;99.90;;;;;;5110790;28;20497;-67
2021/09/14 09:57:42;;;;;;;6.70;5.80;;;28.20;99.90;;;;;;5111224;28;20543;-67
2021/09/14 10:00:12;;;;;;;6.40;5.80;;;28.90;99.90;;;;;;5111122;28;20455;-67
2021/09/14 10:02:43;;;;;;;6.73;6.10;;;29.00;99.90;;;;;;5110893;28;20855;-67
2021/09/14 10:05:13;;;;;;;6.43;5.83;;;29.00;99.90;;;;;;5110970;28;21045;-67
2021/09/14 10:07:45;;;;;;;6.53;5.93;;;29.10;99.90;;;;;;5111321;28;20815;-67
2021/09/14 10:10:12;;;;;;;6.43;5.57;;;29.60;99.90;;;;;;5110716;28;20442;-67
2021/09/14 10:12:39;;;;;;;6.73;6.10;;;30.00;99.90;;;;;;5110696;28;20425;-67
2021/09/14 10:15:08;;;;;;;6.90;5.93;;;30.40;98.80;;;;;;5110721;28;20457;-67
2021/09/14 10:17:48;;;;;;;6.33;5.30;;;30.60;98.10;;;;;;5111985;28;20441;-67
2021/09/14 10:20:18;;;;;;;7.50;6.53;;;30.00;97.30;;;;;;5110954;28;20441;-67
2021/09/14 10:23:00;;;;;;;6.93;6.10;;;29.80;97.50;;;;;;5110597;28;20571;-66
2021/09/14 10:25:27;;;;;;;7.27;5.87;;;29.20;98.30;;;;;;5110639;28;20864;-67
2021/09/14 10:27:55;;;;;;;6.80;5.50;;;29.30;98.40;;;;;;5110803;28;20439;-66
2021/09/14 10:30:25;;;;;;;6.43;5.83;;;29.70;97.60;;;;;;5110500;28;20455;-67
2021/09/14 10:32:52;;;;;;;6.97;6.33;;;30.10;97.40;;;;;;5110074;28;20887;-66
2021/09/14 10:35:29;;;;;;;7.50;6.30;;;30.40;96.20;;;;;;5110719;28;20483;-67
2021/09/14 10:38:09;;;;;;;7.20;6.50;;;30.60;96.50;;;;;;5110647;28;21242;-67
2021/09/14 10:40:41;;;;;;;8.07;6.00;;;30.20;96.00;;;;;;5110499;28;20544;-67
2021/09/14 10:43:08;;;;;;;7.57;6.00;;;29.70;96.80;;;;;;5110033;28;20481;-67
2021/09/14 10:45:43;;;;;;;7.60;6.70;;;29.40;97.00;;;;;;5110638;28;20449;-66
2021/09/14 10:48:26;;;;;;;8.10;6.60;;;29.40;98.90;;;;;;5110623;28;20476;-66
2021/09/14 10:50:56;;;;;;;7.83;6.73;;;29.40;97.60;;;;;;5110705;28;20884;-67
2021/09/14 10:53:26;;;;;;;7.50;6.50;;;29.60;97.20;;;;;;5110157;28;20439;-65
2021/09/14 10:55:55;;;;;;;8.70;6.33;;;29.70;97.50;;;;;;5110301;28;21041;-66
2021/09/14 10:58:22;;;;;;;8.03;6.90;;;29.70;97.20;;;;;;5110609;28;20483;-66
2021/09/14 11:00:49;;;;;;;7.33;6.53;;;30.00;97.00;;;;;;5110478;28;20849;-66
2021/09/14 11:03:18;;;;;;;6.70;6.07;;;30.10;96.70;;;;;;5112460;28;20480;-66
2021/09/14 11:05:49;;;;;;;6.73;6.00;;;30.60;95.90;;;;;;5114382;27;20812;-67
2021/09/14 11:08:23;;;;;;;9.30;5.77;;;30.60;95.90;;;;;;5114274;28;20445;-67
2021/09/14 11:10:50;;;;;;;7.13;6.43;;;30.80;96.00;;;;;;5114604;28;20433;-66
2021/09/14 11:13:22;;;;;;;6.97;6.27;;;30.60;94.70;;;;;;5114043;28;20430;-65
2021/09/14 11:15:56;;;;;;;8.10;6.80;;;30.50;95.60;;;;;;5114092;28;20477;-66
2021/09/14 11:18:24;;;;;;;6.80;6.10;;;30.80;95.50;;;;;;5114089;28;20429;-66
2021/09/14 11:20:52;;;;;;;7.57;6.57;;;31.70;95.00;;;;;;5114329;28;20441;-66
2021/09/14 11:23:26;;;;;;;8.33;6.53;;;32.60;93.50;;;;;;5113942;27;20469;-66
2021/09/14 11:25:55;;;;;;;9.00;5.83;;;32.50;92.80;;;;;;5113813;28;20456;-66
2021/09/14 11:28:23;;;;;;;8.30;7.47;;;32.80;91.80;;;;;;5113743;28;20448;-66
2021/09/14 11:30:58;;;;;;;7.03;5.93;;;32.50;91.40;;;;;;5113740;28;20439;-66
2021/09/14 11:33:26;;;;;;;7.10;6.40;;;32.00;94.40;;;;;;5113599;28;20521;-66
2021/09/14 11:35:54;;;;;;;6.90;6.20;;;32.70;92.50;;;;;;5113930;27;20544;-66
2021/09/14 11:38:21;;;;;;;7.20;6.50;;;33.50;91.50;;;;;;5114421;28;20451;-67
2021/09/14 11:40:51;;;;;;;8.43;6.70;;;34.80;89.20;;;;;;5113600;28;20453;-66
2021/09/14 11:43:20;;;;;;;8.23;6.50;;;34.40;89.40;;;;;;5113311;28;20479;-67
2021/09/14 11:45:48;;;;;;;7.30;6.60;;;33.40;89.80;;;;;;5113521;28;20832;-67
2021/09/14 11:48:22;;;;;;;8.30;7.53;;;32.20;91.10;;;;;;5113727;28;20441;-66
2021/09/14 11:50:50;;;;;;;8.53;7.73;;;31.00;93.30;;;;;;5113855;28;20506;-67
2021/09/14 11:53:18;;;;;;;8.13;7.33;;;30.00;94.70;;;;;;5113278;28;20529;-67
2021/09/14 11:55:47;;;;;;;10.30;6.50;;;29.50;95.80;;;;;;5113355;28;20453;-67
2021/09/14 11:58:27;;;;;;;7.83;7.00;;;29.30;96.40;;;;;;5113145;28;20436;-67
2021/09/14 12:00:57;;;;;;;9.57;7.27;;;28.90;96.70;;;;;;5113540;27;20433;-67
2021/09/14 12:03:34;;;;;;;9.33;7.10;;;28.70;97.60;;;;;;5112975;28;21041;-66
2021/09/14 12:06:01;;;;;;;8.23;7.40;;;28.40;98.50;;;;;;5113153;28;20552;-66
2021/09/14 12:08:31;;;;;;;10.37;7.73;;;28.00;99.50;;;;;;5113111;28;20528;-67
2021/09/14 12:10:59;;;;;;;8.80;7.23;;;27.80;99.60;;;;;;5113180;28;20449;-65
2021/09/14 12:13:28;;;;;;;8.33;7.47;;;28.30;99.10;;;;;;5112486;28;20448;-67
2021/09/14 12:16:05;;;;;;;8.07;7.23;;;28.70;99.10;;;;;;5113158;28;20460;-66
2021/09/14 12:18:32;;;;;;;9.30;7.10;;;28.90;98.00;;;;;;5112512;28;20473;-68
2021/09/14 12:20:59;;;;;;;7.40;6.70;;;28.60;98.00;;;;;;5112983;28;20434;-67
2021/09/14 12:23:26;;;;;;;8.47;7.67;;;28.20;98.70;;;;;;5112330;28;20472;-66
2021/09/14 12:25:53;;;;;;;7.80;5.97;;;27.90;98.70;;;;;;5113036;28;20464;-67
2021/09/14 12:28:19;;;;;;;8.27;6.67;;;28.00;98.80;;;;;;5112992;28;20517;-67
2021/09/14 12:30:48;;;;;;;7.33;6.67;;;28.00;98.10;;;;;;5113000;28;20812;-65
2021/09/14 12:33:16;;;;;;;6.53;5.93;;;28.00;98.30;;;;;;5112591;28;20476;-68
2021/09/14 12:35:44;;;;;;;7.30;5.43;;;28.30;97.60;;;;;;5112771;28;20863;-66
2021/09/14 12:38:11;;;;;;;7.40;6.60;;;28.40;97.30;;;;;;5112918;28;20516;-66
2021/09/14 12:40:38;;;;;;;7.40;6.00;;;28.30;97.30;;;;;;5112648;27;20449;-67
2021/09/14 12:43:05;;;;;;;6.57;5.97;;;28.30;97.60;;;;;;5112367;28;20444;-67
2021/09/14 12:45:33;;;;;;;7.03;6.33;;;28.20;97.50;;;;;;5112404;28;20467;-66
2021/09/14 12:48:01;;;;;;;8.13;6.33;;;28.10;97.60;;;;;;5112487;28;20528;-67
2021/09/14 12:50:28;;;;;;;7.37;5.93;;;28.10;97.80;;;;;;5112605;28;20914;-67
2021/09/14 12:52:55;;;;;;;7.80;6.50;;;28.30;98.40;;;;;;5112418;28;20449;-67
2021/09/14 12:55:23;;;;;;;7.20;6.50;;;28.40;98.50;;;;;;5112492;28;20461;-67
2021/09/14 12:57:50;;;;;;;9.23;7.07;;;28.30;99.30;;;;;;5112493;27;20509;-66
2021/09/14 13:00:17;;;;;;;7.40;6.70;;;28.30;98.80;;;;;;5112295;28;20468;-66
2021/09/14 13:02:44;;;;;;;8.03;7.33;;;28.10;98.70;;;;;;5111809;28;20439;-64
2021/09/14 13:05:12;;;;;;;8.37;7.53;;;28.00;98.70;;;;;;5111911;28;20481;-65
2021/09/14 13:07:39;;;;;;;9.33;6.00;;;28.20;98.90;;;;;;5111950;28;20448;-65
2021/09/14 13:10:08;;;;;;;7.43;6.83;;;28.50;99.50;;;;;;5112102;28;20442;-65
2021/09/14 13:12:36;;;;;;;7.37;6.67;;;29.20;98.20;;;;;;5111732;28;20443;-66
2021/09/14 13:17:48;;;;;;;6.73;6.03;;;29.60;97.20;;;;;;5111885;28;20785;-65
2021/09/14 13:20:16;;;;;;;8.23;6.30;;;29.40;96.80;;;;;;5111639;28;20957;-66
2021/09/14 13:22:43;;;;;;;7.17;6.47;;;30.00;97.20;;;;;;5111587;28;20540;-65
2021/09/14 13:25:11;;;;;;;6.40;5.80;;;30.60;95.70;;;;;;5110731;28;20477;-65
2021/09/14 13:27:38;;;;;;;7.17;6.50;;;31.40;94.30;;;;;;5111789;28;20976;-66
2021/09/14 13:30:06;;;;;;;7.87;7.03;;;32.50;92.90;;;;;;5111700;28;21010;-67